createdAt,value
2022-08-22T00:02:41.976Z,0.00
2022-08-22T00:03:22.937Z,0.00
2022-08-22T00:03:40.947Z,0.00
2022-08-22T00:04:10.343Z,0.00
2022-08-22T00:04:34.556Z,0.00
2022-08-22T00:04:58.374Z,0.00
2022-08-22T00:05:31.813Z,0.00
2022-08-22T00:06:03.054Z,0.00
2022-08-22T00:06:34.115Z,0.00
2022-08-22T00:07:08.234Z,0.00
2022-08-22T00:07:34.127Z,0.00
2022-08-22T00:07:54.376Z,0.00
2022-08-22T00:08:26.306Z,0.00
2022-08-22T00:08:59.200Z,0.00
2022-08-22T00:09:30.554Z,0.00
2022-08-22T00:10:03.010Z,0.00
2022-08-22T00:10:35.323Z,0.00
2022-08-22T00:11:06.366Z,0.00
2022-08-22T00:11:34.952Z,0.00
2022-08-22T00:11:54.479Z,0.00
2022-08-22T00:12:26.290Z,0.00
2022-08-22T00:12:59.474Z,0.00
2022-08-22T00:13:30.386Z,0.00
2022-08-22T00:14:03.095Z,0.00
2022-08-22T00:14:34.121Z,0.00
2022-08-22T00:15:06.438Z,0.00
2022-08-22T00:15:43.653Z,0.00
2022-08-22T00:15:55.199Z,0.00
2022-08-22T00:16:26.341Z,0.00
2022-08-22T00:16:58.362Z,0.00
2022-08-22T00:17:30.303Z,0.00
2022-08-22T00:18:02.967Z,0.00
2022-08-22T00:18:34.123Z,0.00
2022-08-22T00:19:06.354Z,0.00
2022-08-22T00:19:34.034Z,0.00
2022-08-22T00:19:54.425Z,0.00
2022-08-22T00:20:28.153Z,0.00
2022-08-22T00:20:58.908Z,0.00
2022-08-22T00:21:30.210Z,0.00
2022-08-22T00:22:02.930Z,0.00
2022-08-22T00:22:34.863Z,0.00
2022-08-22T00:23:06.347Z,0.00
2022-08-22T00:23:34.912Z,0.00
2022-08-22T00:23:54.475Z,0.00
2022-08-22T00:24:26.294Z,0.00
2022-08-22T00:24:59.258Z,0.00
2022-08-22T00:25:30.299Z,0.00
2022-08-22T00:26:03.279Z,0.00
2022-08-22T00:26:34.105Z,0.00
2022-08-22T00:27:06.787Z,0.00
2022-08-22T00:27:34.152Z,0.00
2022-08-22T00:27:54.350Z,0.00
2022-08-22T00:28:26.374Z,0.00
2022-08-22T00:28:58.365Z,0.00
2022-08-22T00:29:31.577Z,0.00
2022-08-22T00:30:03.484Z,0.00
2022-08-22T00:30:34.134Z,0.00
2022-08-22T00:31:06.869Z,0.00
2022-08-22T00:31:34.136Z,0.00
2022-08-22T00:31:54.317Z,0.00
2022-08-22T00:32:27.324Z,0.00
2022-08-22T00:33:02.893Z,0.00
2022-08-22T00:33:30.384Z,0.00
2022-08-22T00:34:02.669Z,0.00
2022-08-22T00:34:34.190Z,0.00
2022-08-22T00:35:06.596Z,0.00
2022-08-22T00:35:35.465Z,0.00
2022-08-22T00:35:54.334Z,0.00
2022-08-22T00:36:26.701Z,0.00
2022-08-22T00:36:58.592Z,0.00
2022-08-22T00:37:30.318Z,0.00
2022-08-22T00:38:02.595Z,0.00
2022-08-22T00:38:34.934Z,0.00
2022-08-22T00:39:06.385Z,0.00
2022-08-22T00:39:34.289Z,0.00
2022-08-22T00:39:54.351Z,0.00
2022-08-22T00:40:26.558Z,0.00
2022-08-22T00:40:58.603Z,0.00
2022-08-22T00:41:31.214Z,0.00
2022-08-22T00:42:03.608Z,0.00
2022-08-22T00:42:35.423Z,0.00
2022-08-22T00:43:06.372Z,0.00
2022-08-22T00:43:35.655Z,0.00
2022-08-22T00:43:54.355Z,0.00
2022-08-22T00:44:26.452Z,0.00
2022-08-22T00:44:59.233Z,0.00
2022-08-22T00:45:30.353Z,0.00
2022-08-22T00:46:02.549Z,0.00
2022-08-22T00:46:34.108Z,0.00
2022-08-22T00:47:06.314Z,0.00
2022-08-22T00:47:34.107Z,0.00
2022-08-22T00:47:54.249Z,0.00
2022-08-22T00:48:26.534Z,0.00
2022-08-22T00:48:58.590Z,0.00
2022-08-22T00:49:30.363Z,0.00
2022-08-22T00:50:02.715Z,0.00
2022-08-22T00:50:35.594Z,0.00
2022-08-22T00:51:06.282Z,0.00
2022-08-22T00:51:37.769Z,0.00
2022-08-22T00:52:11.232Z,0.00
2022-08-22T00:52:34.120Z,0.00
2022-08-22T00:52:58.585Z,0.00
2022-08-22T00:53:30.331Z,0.00
2022-08-22T00:54:02.594Z,0.00
2022-08-22T01:04:26.402Z,0.00
2022-08-22T01:04:59.221Z,0.00
2022-08-22T01:05:30.258Z,0.00
2022-08-22T01:06:02.524Z,0.00
2022-08-22T01:06:34.183Z,0.00
2022-08-22T01:07:06.288Z,0.00
2022-08-22T01:07:37.812Z,0.00
2022-08-22T01:07:54.219Z,0.00
2022-08-22T01:08:27.697Z,0.00
2022-08-22T01:08:58.438Z,0.00
2022-08-22T01:09:30.315Z,0.00
2022-08-22T01:10:02.657Z,0.00
2022-08-22T01:10:34.126Z,0.00
2022-08-22T01:11:06.243Z,0.00
2022-08-22T01:11:34.406Z,0.00
2022-08-22T01:11:54.225Z,0.00
2022-08-22T01:12:26.363Z,0.00
2022-08-22T01:12:59.111Z,0.00
2022-08-22T01:13:30.228Z,0.00
2022-08-22T01:14:02.582Z,0.00
2022-08-22T01:14:34.622Z,0.00
2022-08-22T01:15:06.375Z,0.00
2022-08-22T01:15:35.542Z,0.00
2022-08-22T01:15:54.890Z,0.00
2022-08-22T01:16:26.347Z,0.00
2022-08-22T01:16:59.117Z,0.00
2022-08-22T01:17:30.312Z,0.00
2022-08-22T01:18:02.659Z,0.00
2022-08-22T01:18:34.122Z,0.00
2022-08-22T01:19:06.259Z,0.00
2022-08-22T01:19:35.041Z,0.00
2022-08-22T01:19:54.234Z,0.00
2022-08-22T01:20:26.339Z,0.00
2022-08-22T01:20:58.944Z,0.00
2022-08-22T01:21:32.337Z,0.00
2022-08-22T01:22:02.592Z,0.00
2022-08-22T01:22:38.743Z,0.00
2022-08-22T01:23:06.232Z,0.00
2022-08-22T01:23:34.151Z,0.00
2022-08-22T01:23:55.087Z,0.00
2022-08-22T01:24:26.388Z,0.00
2022-08-22T01:24:58.516Z,0.00
2022-08-22T01:25:30.232Z,0.00
2022-08-22T01:26:03.367Z,0.00
2022-08-22T01:26:34.131Z,0.00
2022-08-22T01:27:07.525Z,0.00
2022-08-22T01:27:34.965Z,0.00
2022-08-22T01:27:54.280Z,0.00
2022-08-22T01:28:26.429Z,0.00
2022-08-22T01:29:04.278Z,0.00
2022-08-22T01:29:30.238Z,0.00
2022-08-22T01:30:03.622Z,0.00
2022-08-22T01:30:35.277Z,0.00
2022-08-22T01:31:07.014Z,0.00
2022-08-22T01:31:37.655Z,0.00
2022-08-22T01:32:11.102Z,0.00
2022-08-22T01:32:37.291Z,0.00
2022-08-22T01:32:58.498Z,0.00
2022-08-22T01:33:30.192Z,0.00
2022-08-22T01:34:02.547Z,0.00
2022-08-22T01:34:35.050Z,0.00
2022-08-22T01:35:06.221Z,0.00
2022-08-22T01:35:34.155Z,0.00
2022-08-22T01:35:54.192Z,0.00
2022-08-22T01:36:26.333Z,0.00
2022-08-22T01:36:58.681Z,0.00
2022-08-22T01:37:30.231Z,0.00
2022-08-22T01:38:02.536Z,0.00
2022-08-22T01:38:35.317Z,0.00
2022-08-22T01:39:06.246Z,0.00
2022-08-22T01:39:34.121Z,0.00
2022-08-22T01:39:54.230Z,0.00
2022-08-22T01:40:26.296Z,0.00
2022-08-22T01:40:58.349Z,0.00
2022-08-22T01:41:31.042Z,0.00
2022-08-22T01:42:03.204Z,0.00
2022-08-22T01:42:35.269Z,0.00
2022-08-22T01:43:06.240Z,0.00
2022-08-22T01:43:59.216Z,0.00
2022-08-22T01:44:10.194Z,0.00
2022-08-22T01:44:34.837Z,0.00
2022-08-22T01:44:58.508Z,0.00
2022-08-22T01:45:30.273Z,0.00
2022-08-22T01:46:02.464Z,0.00
2022-08-22T01:46:34.173Z,0.00
2022-08-22T01:47:06.311Z,0.00
2022-08-22T01:47:37.524Z,0.00
2022-08-22T01:47:55.342Z,0.00
2022-08-22T01:48:26.339Z,0.00
2022-08-22T01:48:58.533Z,0.00
2022-08-22T01:49:31.362Z,0.00
2022-08-22T01:50:02.840Z,0.00
2022-08-22T01:50:34.838Z,0.00
2022-08-22T01:51:06.245Z,0.00
2022-08-22T01:51:34.189Z,0.00
2022-08-22T01:51:54.211Z,0.00
2022-08-22T01:52:26.603Z,0.00
2022-08-22T01:52:59.228Z,0.00
2022-08-22T01:53:30.235Z,0.00
2022-08-22T01:54:02.567Z,0.00
2022-08-22T01:54:37.765Z,0.00
2022-08-22T01:55:06.169Z,0.00
2022-08-22T01:55:34.657Z,0.00
2022-08-22T01:55:54.432Z,0.00
2022-08-22T01:56:26.361Z,0.00
2022-08-22T01:57:03.919Z,0.00
2022-08-22T01:57:31.448Z,0.00
2022-08-22T01:58:02.519Z,0.00
2022-08-22T01:58:34.115Z,0.00
2022-08-22T01:59:11.047Z,0.00
2022-08-22T01:59:34.853Z,0.00
2022-08-22T01:59:54.200Z,0.00
2022-08-22T02:00:34.920Z,0.00
2022-08-22T02:00:58.960Z,0.00
2022-08-22T02:01:30.218Z,0.00
2022-08-22T02:02:03.514Z,0.00
2022-08-22T02:02:34.132Z,0.00
2022-08-22T02:03:06.193Z,0.00
2022-08-22T02:03:34.137Z,0.00
2022-08-22T02:03:54.219Z,0.00
2022-08-22T02:04:26.303Z,0.00
2022-08-22T02:04:58.864Z,0.00
2022-08-22T02:05:30.157Z,0.00
2022-08-22T02:06:03.332Z,0.00
2022-08-22T02:06:35.008Z,0.00
2022-08-22T02:07:06.267Z,0.00
2022-08-22T02:07:34.161Z,0.00
2022-08-22T02:07:54.143Z,0.00
2022-08-22T02:08:26.401Z,0.00
2022-08-22T02:08:59.033Z,0.00
2022-08-22T02:09:30.178Z,0.00
2022-08-22T02:10:02.462Z,0.00
2022-08-22T02:10:34.144Z,0.00
2022-08-22T02:11:06.914Z,0.00
2022-08-22T02:11:34.106Z,0.00
2022-08-22T02:11:54.134Z,0.00
2022-08-22T02:12:27.315Z,0.00
2022-08-22T02:12:58.453Z,0.00
2022-08-22T02:13:30.228Z,0.00
2022-08-22T02:14:02.541Z,0.00
2022-08-22T02:14:34.097Z,0.00
2022-08-22T02:15:06.239Z,0.00
2022-08-22T02:15:34.141Z,0.00
2022-08-22T02:15:54.156Z,0.00
2022-08-22T02:16:26.227Z,0.00
2022-08-22T02:16:58.569Z,0.00
2022-08-22T02:17:30.201Z,0.00
2022-08-22T02:18:02.494Z,0.00
2022-08-22T02:18:34.122Z,0.00
2022-08-22T02:19:06.168Z,0.00
2022-08-22T02:19:34.152Z,0.00
2022-08-22T02:19:55.082Z,0.00
2022-08-22T02:20:27.350Z,0.00
2022-08-22T02:21:00.356Z,0.00
2022-08-22T02:21:30.211Z,0.00
2022-08-22T02:22:02.425Z,0.00
2022-08-22T02:22:34.510Z,0.00
2022-08-22T02:23:06.166Z,0.00
2022-08-22T02:23:34.178Z,0.00
2022-08-22T02:23:55.950Z,0.00
2022-08-22T02:24:27.265Z,0.00
2022-08-22T02:25:00.217Z,0.00
2022-08-22T02:25:30.284Z,0.00
2022-08-22T02:26:02.545Z,0.00
2022-08-22T02:26:34.111Z,0.00
2022-08-22T02:27:06.516Z,0.00
2022-08-22T02:27:34.944Z,0.00
2022-08-22T02:27:54.206Z,0.00
2022-08-22T02:28:26.286Z,0.00
2022-08-22T02:28:58.568Z,0.00
2022-08-22T02:29:30.177Z,0.00
2022-08-22T02:30:02.625Z,0.00
2022-08-22T02:30:34.156Z,0.00
2022-08-22T02:31:06.170Z,0.00
2022-08-22T02:31:34.114Z,0.00
2022-08-22T02:31:54.199Z,0.00
2022-08-22T02:32:28.391Z,0.00
2022-08-22T02:32:58.577Z,0.00
2022-08-22T02:33:30.962Z,0.00
2022-08-22T02:34:02.462Z,0.00
2022-08-22T02:34:34.085Z,0.00
2022-08-22T02:35:06.139Z,0.00
2022-08-22T02:35:34.895Z,0.00
2022-08-22T02:35:55.037Z,0.00
2022-08-22T02:36:26.758Z,0.00
2022-08-22T02:36:58.526Z,0.00
2022-08-22T02:37:30.178Z,0.00
2022-08-22T02:38:02.460Z,0.00
2022-08-22T02:38:34.762Z,0.00
2022-08-22T02:39:06.218Z,0.00
2022-08-22T02:39:34.551Z,0.00
2022-08-22T02:39:54.196Z,0.00
2022-08-22T02:40:27.225Z,0.00
2022-08-22T02:40:59.695Z,0.00
2022-08-22T02:41:30.939Z,0.00
2022-08-22T02:42:03.623Z,0.00
2022-08-22T02:42:34.115Z,0.00
2022-08-22T02:43:06.124Z,0.00
2022-08-22T02:43:34.207Z,0.00
2022-08-22T02:43:54.158Z,0.00
2022-08-22T02:44:26.249Z,0.00
2022-08-22T02:44:58.641Z,0.00
2022-08-22T02:45:30.208Z,0.00
2022-08-22T02:46:02.401Z,0.00
2022-08-22T02:46:36.087Z,0.00
2022-08-22T02:47:06.135Z,0.00
2022-08-22T02:47:34.130Z,0.00
2022-08-22T02:47:55.085Z,0.00
2022-08-22T02:48:26.374Z,0.00
2022-08-22T02:48:58.570Z,0.00
2022-08-22T02:49:30.289Z,0.00
2022-08-22T02:50:02.433Z,0.00
2022-08-22T02:50:34.119Z,0.00
2022-08-22T02:51:08.455Z,0.00
2022-08-22T02:51:34.149Z,0.00
2022-08-22T02:51:54.141Z,0.00
2022-08-22T02:52:26.296Z,0.00
2022-08-22T02:52:58.634Z,0.00
2022-08-22T02:53:30.147Z,0.00
2022-08-22T02:54:02.327Z,0.00
2022-08-22T02:54:35.024Z,0.00
2022-08-22T02:55:06.147Z,0.00
2022-08-22T02:55:34.091Z,0.00
2022-08-22T02:55:54.160Z,0.00
2022-08-22T02:56:26.413Z,0.00
2022-08-22T02:56:59.211Z,0.00
2022-08-22T02:57:30.162Z,0.00
2022-08-22T02:58:02.265Z,0.00
2022-08-22T02:58:34.255Z,0.00
2022-08-22T02:59:06.178Z,0.00
2022-08-22T02:59:34.219Z,0.00
2022-08-22T02:59:54.159Z,0.00
2022-08-22T03:00:32.417Z,0.00
2022-08-22T03:00:58.721Z,0.00
2022-08-22T03:01:30.874Z,0.00
2022-08-22T03:02:03.194Z,0.00
2022-08-22T03:02:34.126Z,0.00
2022-08-22T03:03:06.140Z,0.00
2022-08-22T03:03:34.281Z,0.00
2022-08-22T03:03:54.154Z,0.00
2022-08-22T03:04:26.234Z,0.00
2022-08-22T03:04:59.099Z,0.00
2022-08-22T03:05:30.173Z,0.00
2022-08-22T03:06:03.377Z,0.00
2022-08-22T03:06:34.220Z,0.00
2022-08-22T03:07:06.889Z,0.00
2022-08-22T03:07:34.138Z,0.00
2022-08-22T03:07:54.340Z,0.00
2022-08-22T03:08:27.345Z,0.00
2022-08-22T03:08:58.720Z,0.00
2022-08-22T03:09:30.947Z,0.00
2022-08-22T03:10:02.998Z,0.00
2022-08-22T03:10:34.121Z,0.00
2022-08-22T03:11:06.138Z,0.00
2022-08-22T03:11:34.104Z,0.00
2022-08-22T03:11:54.136Z,0.00
2022-08-22T03:12:26.242Z,0.00
2022-08-22T03:12:58.569Z,0.00
2022-08-22T03:13:30.472Z,0.00
2022-08-22T03:14:02.419Z,0.00
2022-08-22T03:14:34.132Z,0.00
2022-08-22T03:15:06.200Z,0.00
2022-08-22T03:15:34.147Z,0.00
2022-08-22T03:15:54.167Z,0.00
2022-08-22T03:16:26.247Z,0.00
2022-08-22T03:16:58.597Z,0.00
2022-08-22T03:17:30.153Z,0.00
2022-08-22T03:18:03.256Z,0.00
2022-08-22T03:18:35.062Z,0.00
2022-08-22T03:19:06.133Z,0.00
2022-08-22T03:19:35.340Z,0.00
2022-08-22T03:19:54.095Z,0.00
2022-08-22T03:20:27.088Z,0.00
2022-08-22T03:20:58.570Z,0.00
2022-08-22T03:21:30.111Z,0.00
2022-08-22T03:22:02.277Z,0.00
2022-08-22T03:22:34.123Z,0.00
2022-08-22T03:23:06.124Z,0.00
2022-08-22T03:23:35.020Z,0.00
2022-08-22T03:23:54.141Z,0.00
2022-08-22T03:24:26.266Z,0.00
2022-08-22T03:24:58.710Z,0.00
2022-08-22T03:25:30.011Z,0.00
2022-08-22T03:26:02.253Z,0.00
2022-08-22T03:26:35.325Z,0.00
2022-08-22T03:27:06.547Z,0.00
2022-08-22T03:27:34.164Z,0.00
2022-08-22T03:27:54.133Z,0.00
2022-08-22T03:28:26.270Z,0.00
2022-08-22T03:28:59.882Z,0.00
2022-08-22T03:29:30.104Z,0.00
2022-08-22T03:30:02.658Z,0.00
2022-08-22T03:30:35.409Z,0.00
2022-08-22T03:31:06.080Z,0.00
2022-08-22T03:31:36.130Z,0.00
2022-08-22T03:31:54.151Z,0.00
2022-08-22T03:32:27.021Z,0.00
2022-08-22T03:32:58.572Z,0.00
2022-08-22T03:33:30.117Z,0.00
2022-08-22T03:34:02.452Z,0.00
2022-08-22T03:34:36.162Z,0.00
2022-08-22T03:35:06.096Z,0.00
2022-08-22T03:35:34.225Z,0.00
2022-08-22T03:35:54.213Z,0.00
2022-08-22T03:36:26.280Z,0.00
2022-08-22T03:36:58.544Z,0.00
2022-08-22T03:37:31.055Z,0.00
2022-08-22T03:38:02.625Z,0.00
2022-08-22T03:38:34.344Z,0.00
2022-08-22T03:39:14.949Z,0.00
2022-08-22T03:39:34.168Z,0.00
2022-08-22T03:39:54.120Z,0.00
2022-08-22T03:40:31.782Z,0.00
2022-08-22T03:40:58.609Z,0.00
2022-08-22T03:41:30.047Z,0.00
2022-08-22T03:42:02.531Z,0.00
2022-08-22T03:42:34.939Z,0.00
2022-08-22T03:43:06.094Z,0.00
2022-08-22T03:43:35.333Z,0.00
2022-08-22T03:43:54.105Z,0.00
2022-08-22T03:44:27.956Z,0.00
2022-08-22T03:44:59.659Z,0.00
2022-08-22T03:45:31.282Z,0.00
2022-08-22T03:46:02.450Z,0.00
2022-08-22T03:46:34.192Z,0.00
2022-08-22T03:47:06.219Z,0.00
2022-08-22T03:47:34.119Z,0.00
2022-08-22T03:47:54.115Z,0.00
2022-08-22T03:48:26.223Z,0.00
2022-08-22T03:48:58.654Z,0.00
2022-08-22T03:49:30.111Z,0.00
2022-08-22T03:50:02.549Z,0.00
2022-08-22T03:50:35.341Z,0.00
2022-08-22T03:51:06.050Z,0.00
2022-08-22T03:51:36.117Z,0.00
2022-08-22T03:51:54.151Z,0.00
2022-08-22T03:52:26.145Z,0.00
2022-08-22T03:52:59.344Z,0.00
2022-08-22T03:53:30.162Z,0.00
2022-08-22T03:54:02.449Z,0.00
2022-08-22T03:54:34.066Z,0.00
2022-08-22T03:55:06.118Z,0.00
2022-08-22T03:55:34.199Z,0.00
2022-08-22T03:55:54.145Z,0.00
2022-08-22T03:56:26.183Z,0.00
2022-08-22T03:57:00.521Z,0.00
2022-08-22T03:57:30.146Z,0.00
2022-08-22T03:58:03.156Z,0.00
2022-08-22T03:58:34.943Z,0.00
2022-08-22T03:59:10.237Z,0.00
2022-08-22T03:59:35.514Z,0.00
2022-08-22T03:59:54.187Z,0.00
2022-08-22T04:00:26.221Z,0.00
2022-08-22T04:00:58.579Z,0.00
2022-08-22T04:01:30.080Z,0.00
2022-08-22T04:02:02.357Z,0.00
2022-08-22T04:02:43.182Z,0.00
2022-08-22T04:03:11.072Z,0.00
2022-08-22T04:03:34.864Z,0.00
2022-08-22T04:03:54.146Z,0.00
2022-08-22T04:04:26.156Z,0.00
2022-08-22T04:04:58.696Z,0.00
2022-08-22T04:05:30.114Z,0.00
2022-08-22T04:06:03.308Z,0.00
2022-08-22T04:06:35.033Z,0.00
2022-08-22T04:07:06.070Z,0.00
2022-08-22T04:07:34.111Z,0.00
2022-08-22T04:07:54.128Z,0.00
2022-08-22T04:08:26.532Z,0.00
2022-08-22T04:08:58.691Z,0.00
2022-08-22T04:09:30.089Z,0.00
2022-08-22T04:10:02.284Z,0.00
2022-08-22T04:10:34.145Z,0.00
2022-08-22T04:11:05.976Z,0.00
2022-08-22T04:11:34.222Z,0.00
2022-08-22T04:11:54.143Z,0.00
2022-08-22T04:12:26.205Z,0.00
2022-08-22T04:12:58.516Z,0.00
2022-08-22T04:13:30.105Z,0.00
2022-08-22T04:14:02.441Z,0.00
2022-08-22T04:14:34.113Z,0.00
2022-08-22T04:15:06.252Z,0.00
2022-08-22T04:15:37.922Z,0.00
2022-08-22T04:16:10.088Z,0.00
2022-08-22T04:16:34.759Z,0.00
2022-08-22T04:17:04.027Z,0.00
2022-08-22T04:17:31.072Z,0.00
2022-08-22T04:18:02.243Z,0.00
2022-08-22T04:18:34.060Z,0.00
2022-08-22T04:19:08.055Z,0.00
2022-08-22T04:19:34.225Z,0.00
2022-08-22T04:19:54.106Z,0.00
2022-08-22T04:20:27.321Z,0.00
2022-08-22T04:20:59.031Z,0.00
2022-08-22T04:21:30.196Z,0.00
2022-08-22T04:22:02.652Z,0.00
2022-08-22T04:22:34.156Z,0.00
2022-08-22T04:23:06.212Z,0.36
2022-08-22T04:23:34.226Z,0.00
2022-08-22T04:23:54.094Z,0.00
2022-08-22T04:24:25.885Z,0.00
2022-08-22T04:24:58.496Z,0.85
2022-08-22T04:25:30.052Z,0.36
2022-08-22T04:26:12.052Z,0.36
2022-08-22T04:26:34.119Z,0.00
2022-08-22T04:27:06.623Z,0.36
2022-08-22T04:27:36.306Z,1.22
2022-08-22T04:27:54.433Z,0.85
2022-08-22T04:28:27.110Z,1.22
2022-08-22T04:28:59.058Z,1.22
2022-08-22T04:29:30.303Z,1.71
2022-08-22T04:30:02.804Z,2.94
2022-08-22T04:30:34.565Z,2.08
2022-08-22T04:31:06.250Z,2.08
2022-08-22T04:31:34.269Z,2.08
2022-08-22T04:31:54.274Z,1.71
2022-08-22T04:32:26.298Z,2.94
2022-08-22T04:32:58.852Z,2.94
2022-08-22T04:33:31.031Z,3.43
2022-08-22T04:34:03.602Z,2.94
2022-08-22T04:34:34.253Z,4.28
2022-08-22T04:35:06.174Z,3.79
2022-08-22T04:35:34.293Z,4.28
2022-08-22T04:35:54.301Z,3.79
2022-08-22T04:36:26.363Z,4.77
2022-08-22T04:36:58.700Z,5.63
2022-08-22T04:37:31.094Z,4.28
2022-08-22T04:38:02.776Z,5.63
2022-08-22T04:38:34.922Z,5.63
2022-08-22T04:39:06.212Z,5.63
2022-08-22T04:39:34.420Z,5.99
2022-08-22T04:39:54.279Z,5.99
2022-08-22T04:40:26.369Z,7.34
2022-08-22T04:41:02.586Z,6.48
2022-08-22T04:41:31.292Z,6.85
2022-08-22T04:42:22.353Z,6.85
2022-08-22T04:42:34.248Z,7.34
2022-08-22T04:43:06.239Z,7.34
2022-08-22T04:43:34.241Z,8.19
2022-08-22T04:43:54.323Z,8.19
2022-08-22T04:44:26.408Z,8.56
2022-08-22T04:45:04.456Z,8.56
2022-08-22T04:45:31.139Z,9.05
2022-08-22T04:46:03.562Z,9.54
2022-08-22T04:46:37.084Z,9.54
2022-08-22T04:47:06.281Z,9.91
2022-08-22T04:47:34.323Z,9.54
2022-08-22T04:47:54.473Z,10.39
2022-08-22T04:48:26.355Z,10.39
2022-08-22T04:49:00.909Z,10.77
2022-08-22T04:49:31.262Z,11.62
2022-08-22T04:50:03.259Z,11.62
2022-08-22T04:50:34.219Z,10.77
2022-08-22T04:51:06.257Z,12.11
2022-08-22T04:51:34.326Z,12.11
2022-08-22T04:51:54.179Z,12.11
2022-08-22T04:52:32.429Z,12.11
2022-08-22T04:52:58.772Z,12.97
2022-08-22T04:53:30.362Z,12.48
2022-08-22T04:54:04.485Z,13.33
2022-08-22T04:54:34.432Z,13.33
2022-08-22T04:55:06.207Z,13.33
2022-08-22T04:55:35.153Z,13.82
2022-08-22T04:55:54.313Z,13.33
2022-08-22T04:56:26.187Z,13.82
2022-08-22T04:56:59.493Z,14.68
2022-08-22T04:57:30.487Z,14.31
2022-08-22T04:58:02.792Z,15.53
2022-08-22T04:58:34.318Z,15.17
2022-08-22T04:59:09.105Z,15.17
2022-08-22T04:59:34.403Z,15.53
2022-08-22T04:59:54.356Z,16.02
2022-08-22T05:00:27.685Z,16.39
2022-08-22T05:00:58.789Z,16.39
2022-08-22T05:01:30.750Z,16.39
2022-08-22T05:02:02.766Z,16.88
2022-08-22T05:02:34.341Z,17.25
2022-08-22T05:03:06.274Z,17.25
2022-08-22T05:03:34.330Z,16.88
2022-08-22T05:03:54.230Z,18.11
2022-08-22T05:04:26.412Z,18.60
2022-08-22T05:04:58.626Z,18.60
2022-08-22T05:05:30.348Z,18.11
2022-08-22T05:06:02.713Z,19.45
2022-08-22T05:06:35.154Z,18.60
2022-08-22T05:07:06.244Z,19.08
2022-08-22T05:07:36.257Z,19.08
2022-08-22T05:07:54.222Z,19.08
2022-08-22T05:08:26.392Z,19.94
2022-08-22T05:08:58.664Z,21.16
2022-08-22T05:09:30.367Z,20.31
2022-08-22T05:10:11.655Z,19.94
2022-08-22T05:10:35.091Z,20.31
2022-08-22T05:11:06.169Z,19.94
2022-08-22T05:11:34.429Z,20.80
2022-08-22T05:11:54.265Z,21.16
2022-08-22T05:12:29.179Z,21.65
2022-08-22T05:12:58.642Z,22.02
2022-08-22T05:13:32.264Z,22.87
2022-08-22T05:14:03.158Z,22.02
2022-08-22T05:14:34.433Z,22.02
2022-08-22T05:15:07.293Z,23.36
2022-08-22T05:15:34.820Z,23.85
2022-08-22T05:15:54.166Z,23.36
2022-08-22T05:16:26.192Z,23.36
2022-08-22T05:16:58.680Z,23.85
2022-08-22T05:17:32.802Z,23.85
2022-08-22T05:18:02.612Z,23.85
2022-08-22T05:18:35.464Z,24.22
2022-08-22T05:19:06.209Z,23.85
2022-08-22T05:19:35.667Z,24.71
2022-08-22T05:19:54.202Z,24.71
2022-08-22T05:20:27.199Z,25.07
2022-08-22T05:20:58.794Z,25.07
2022-08-22T05:21:30.204Z,25.07
2022-08-22T05:22:03.470Z,25.07
2022-08-22T05:22:35.391Z,25.56
2022-08-22T05:23:06.224Z,26.42
2022-08-22T05:23:34.283Z,26.42
2022-08-22T05:23:54.217Z,25.94
2022-08-22T05:24:29.333Z,25.94
2022-08-22T05:24:58.719Z,26.79
2022-08-22T05:25:31.660Z,26.42
2022-08-22T05:26:02.649Z,26.79
2022-08-22T05:26:34.223Z,27.28
2022-08-22T05:27:06.680Z,27.65
2022-08-22T05:27:35.398Z,27.28
2022-08-22T05:27:56.446Z,27.65
2022-08-22T05:28:26.345Z,27.65
2022-08-22T05:28:58.645Z,28.14
2022-08-22T05:29:30.843Z,28.14
2022-08-22T05:30:03.010Z,28.14
2022-08-22T05:30:34.192Z,28.63
2022-08-22T05:31:06.204Z,28.63
2022-08-22T05:31:36.170Z,29.48
2022-08-22T05:31:54.244Z,28.63
2022-08-22T05:32:26.181Z,28.99
2022-08-22T05:32:58.562Z,29.85
2022-08-22T05:33:30.294Z,29.85
2022-08-22T05:34:04.473Z,30.34
2022-08-22T05:34:35.847Z,29.85
2022-08-22T05:35:06.203Z,30.34
2022-08-22T05:35:34.333Z,30.34
2022-08-22T05:35:57.675Z,30.34
2022-08-22T05:36:26.236Z,30.34
2022-08-22T05:36:58.734Z,31.56
2022-08-22T05:37:30.332Z,31.19
2022-08-22T05:38:02.561Z,31.56
2022-08-22T05:38:35.192Z,31.56
2022-08-22T05:39:06.196Z,31.56
2022-08-22T05:39:34.817Z,31.56
2022-08-22T05:39:55.052Z,32.05
2022-08-22T05:40:27.325Z,32.05
2022-08-22T05:41:04.354Z,32.42
2022-08-22T05:41:30.373Z,32.90
2022-08-22T05:42:03.504Z,32.42
2022-08-22T05:42:36.623Z,32.05
2022-08-22T05:43:06.202Z,32.90
2022-08-22T05:43:34.317Z,32.90
2022-08-22T05:43:54.357Z,33.76
2022-08-22T05:44:26.171Z,33.39
2022-08-22T05:44:59.359Z,33.39
2022-08-22T05:45:30.376Z,33.76
2022-08-22T05:46:04.377Z,33.76
2022-08-22T05:46:37.556Z,33.39
2022-08-22T05:47:06.171Z,34.25
2022-08-22T05:47:36.289Z,34.25
2022-08-22T05:47:54.273Z,34.62
2022-08-22T05:48:27.459Z,35.11
2022-08-22T05:48:59.003Z,35.48
2022-08-22T05:49:31.207Z,35.11
2022-08-22T05:50:03.744Z,35.97
2022-08-22T05:50:35.093Z,35.48
2022-08-22T05:51:09.441Z,35.11
2022-08-22T05:51:34.417Z,35.11
2022-08-22T05:51:55.068Z,35.97
2022-08-22T05:52:26.343Z,35.48
2022-08-22T05:52:59.675Z,36.33
2022-08-22T05:53:31.317Z,36.33
2022-08-22T05:54:02.670Z,37.19
2022-08-22T05:54:34.767Z,36.82
2022-08-22T05:55:06.233Z,36.33
2022-08-22T05:55:36.310Z,36.82
2022-08-22T05:55:54.252Z,37.19
2022-08-22T05:56:26.137Z,37.19
2022-08-22T05:56:58.845Z,37.68
2022-08-22T05:57:30.274Z,37.68
2022-08-22T05:58:02.552Z,37.68
2022-08-22T05:58:34.205Z,38.17
2022-08-22T05:59:08.596Z,38.53
2022-08-22T05:59:35.081Z,38.53
2022-08-22T05:59:55.861Z,38.17
2022-08-22T06:00:26.189Z,37.68
2022-08-22T06:00:59.320Z,38.53
2022-08-22T06:01:30.356Z,38.53
2022-08-22T06:02:02.548Z,38.53
2022-08-22T06:02:34.117Z,39.02
2022-08-22T06:03:07.046Z,39.02
2022-08-22T06:03:34.330Z,39.39
2022-08-22T06:03:54.180Z,39.39
2022-08-22T06:04:26.142Z,39.02
2022-08-22T06:04:59.320Z,39.39
2022-08-22T06:05:35.405Z,40.24
2022-08-22T06:06:04.024Z,39.88
2022-08-22T06:06:35.162Z,39.88
2022-08-22T06:07:07.054Z,40.73
2022-08-22T06:07:34.609Z,40.73
2022-08-22T06:07:54.173Z,41.10
2022-08-22T06:08:26.218Z,41.59
2022-08-22T06:08:58.549Z,41.10
2022-08-22T06:09:35.466Z,41.59
2022-08-22T06:10:02.635Z,42.45
2022-08-22T06:10:34.070Z,41.59
2022-08-22T06:11:08.937Z,41.96
2022-08-22T06:11:36.376Z,41.96
2022-08-22T06:11:54.216Z,41.96
2022-08-22T06:12:26.095Z,43.31
2022-08-22T06:12:59.480Z,42.45
2022-08-22T06:13:31.223Z,42.45
2022-08-22T06:14:04.160Z,43.31
2022-08-22T06:14:35.744Z,42.94
2022-08-22T06:15:11.814Z,43.31
2022-08-22T06:15:35.412Z,42.94
2022-08-22T06:15:54.289Z,43.31
2022-08-22T06:16:27.283Z,44.65
2022-08-22T06:16:58.899Z,43.80
2022-08-22T06:17:30.304Z,43.80
2022-08-22T06:18:02.538Z,44.65
2022-08-22T06:18:34.148Z,44.65
2022-08-22T06:19:19.189Z,44.65
2022-08-22T06:19:34.337Z,45.51
2022-08-22T06:19:54.222Z,45.51
2022-08-22T06:20:28.724Z,45.02
2022-08-22T06:20:58.558Z,45.51
2022-08-22T06:21:34.947Z,45.51
2022-08-22T06:22:03.574Z,45.87
2022-08-22T06:22:34.284Z,45.51
2022-08-22T06:23:06.698Z,45.02
2022-08-22T06:23:34.392Z,45.87
2022-08-22T06:23:54.317Z,46.36
2022-08-22T06:24:26.242Z,46.36
2022-08-22T06:24:58.559Z,47.22
2022-08-22T06:25:30.264Z,47.22
2022-08-22T06:26:02.712Z,46.73
2022-08-22T06:26:34.261Z,48.07
2022-08-22T06:27:06.815Z,51.50
2022-08-22T06:27:34.412Z,52.85
2022-08-22T06:27:54.134Z,54.19
2022-08-22T06:28:26.154Z,57.62
2022-08-22T06:29:00.239Z,61.53
2022-08-22T06:29:30.235Z,64.59
2022-08-22T06:30:02.745Z,66.31
2022-08-22T06:30:34.107Z,68.87
2022-08-22T06:31:06.297Z,74.50
2022-08-22T06:31:34.821Z,81.10
2022-08-22T06:31:54.995Z,100.56
2022-08-22T06:32:32.619Z,117.07
2022-08-22T06:33:14.444Z,132.73
2022-08-22T06:33:34.832Z,134.44
2022-08-22T06:34:02.826Z,135.67
2022-08-22T06:34:34.244Z,137.51
2022-08-22T06:35:06.290Z,140.07
2022-08-22T06:35:34.501Z,140.93
2022-08-22T06:35:54.299Z,142.64
2022-08-22T06:36:27.085Z,145.21
2022-08-22T06:36:58.796Z,147.41
2022-08-22T06:37:30.458Z,148.27
2022-08-22T06:38:02.773Z,149.61
2022-08-22T06:38:34.290Z,149.98
2022-08-22T06:39:07.335Z,150.47
2022-08-22T06:39:34.491Z,149.98
2022-08-22T06:39:55.217Z,150.96
2022-08-22T06:40:27.470Z,152.19
2022-08-22T06:41:00.324Z,152.68
2022-08-22T06:41:31.114Z,152.19
2022-08-22T06:42:03.628Z,151.33
2022-08-22T06:42:34.420Z,151.82
2022-08-22T06:43:06.230Z,150.96
2022-08-22T06:43:34.483Z,151.82
2022-08-22T06:43:55.078Z,152.19
2022-08-22T06:44:26.279Z,152.19
2022-08-22T06:44:58.557Z,153.53
2022-08-22T06:45:31.643Z,155.24
2022-08-22T06:46:02.834Z,156.10
2022-08-22T06:46:35.942Z,156.95
2022-08-22T06:47:06.229Z,158.30